Terminal Aerodrome Forecast
Issued by NWS

Home | Current Version | Previous Version | Graphics & Text | Print | Product List | Glossary On
Versions: 1 2 3 4 5 6 7 8 9 10 11 12 13 14 15 16 17 18 19 20
942
FTUS43 KMPX 062324
TAFRWF
TAF
KRWF 062324Z 0700/0724 28023G32KT P6SM SCT025 OVC035
     FM071700 29020G28KT P6SM BKN035 OVC050=

USA.gov is the U.S. government's official web portal to all federal, state and local government web resources and services.